sensor_id;sensor_type;location;lat;lon;timestamp;P1;durP1;ratioP1;P2;durP2;ratioP2
1811;SDS011;904;47.814;11.134;2023-05-19T00:01:26;4.07;;;2.60;;
1811;SDS011;904;47.814;11.134;2023-05-19T00:03:55;3.70;;;2.20;;
1811;SDS011;904;47.814;11.134;2023-05-19T00:06:28;3.50;;;2.80;;
1811;SDS011;904;47.814;11.134;2023-05-19T00:08:56;4.63;;;2.20;;
1811;SDS011;904;47.814;11.134;2023-05-19T00:11:25;4.60;;;2.77;;
1811;SDS011;904;47.814;11.134;2023-05-19T00:13:53;8.30;;;3.13;;
1811;SDS011;904;47.814;11.134;2023-05-19T00:16:21;3.97;;;2.70;;
1811;SDS011;904;47.814;11.134;2023-05-19T00:18:49;4.35;;;2.42;;
1811;SDS011;904;47.814;11.134;2023-05-19T00:21:17;3.60;;;2.60;;
1811;SDS011;904;47.814;11.134;2023-05-19T00:23:46;4.60;;;2.80;;
1811;SDS011;904;47.814;11.134;2023-05-19T00:26:13;3.30;;;2.60;;
1811;SDS011;904;47.814;11.134;2023-05-19T00:28:40;4.43;;;2.70;;
1811;SDS011;904;47.814;11.134;2023-05-19T00:31:07;8.07;;;3.25;;
1811;SDS011;904;47.814;11.134;2023-05-19T00:33:35;4.95;;;2.25;;
1811;SDS011;904;47.814;11.134;2023-05-19T00:36:02;4.55;;;2.53;;
1811;SDS011;904;47.814;11.134;2023-05-19T00:38:30;8.20;;;2.47;;
1811;SDS011;904;47.814;11.134;2023-05-19T00:41:00;4.88;;;3.13;;
1811;SDS011;904;47.814;11.134;2023-05-19T00:43:28;5.97;;;3.60;;
1811;SDS011;904;47.814;11.134;2023-05-19T00:45:55;5.90;;;3.17;;
1811;SDS011;904;47.814;11.134;2023-05-19T00:48:23;5.33;;;3.27;;
1811;SDS011;904;47.814;11.134;2023-05-19T00:50:51;5.50;;;3.85;;
1811;SDS011;904;47.814;11.134;2023-05-19T00:53:20;4.97;;;3.03;;
1811;SDS011;904;47.814;11.134;2023-05-19T00:55:48;4.55;;;3.55;;
1811;SDS011;904;47.814;11.134;2023-05-19T00:58:17;4.97;;;3.60;;
1811;SDS011;904;47.814;11.134;2023-05-19T01:00:45;6.35;;;3.85;;
1811;SDS011;904;47.814;11.134;2023-05-19T01:03:12;6.55;;;4.18;;
1811;SDS011;904;47.814;11.134;2023-05-19T01:05:44;5.90;;;4.13;;
1811;SDS011;904;47.814;11.134;2023-05-19T01:08:11;5.05;;;3.72;;
1811;SDS011;904;47.814;11.134;2023-05-19T01:10:39;4.28;;;3.70;;
1811;SDS011;904;47.814;11.134;2023-05-19T01:13:06;6.35;;;4.18;;
1811;SDS011;904;47.814;11.134;2023-05-19T01:15:44;8.63;;;4.65;;
1811;SDS011;904;47.814;11.134;2023-05-19T01:18:28;8.88;;;3.67;;
1811;SDS011;904;47.814;11.134;2023-05-19T01:21:08;7.03;;;4.15;;
1811;SDS011;904;47.814;11.134;2023-05-19T01:24:03;5.80;;;3.35;;
1811;SDS011;904;47.814;11.134;2023-05-19T01:26:53;9.18;;;4.45;;
1811;SDS011;904;47.814;11.134;2023-05-19T01:29:41;8.47;;;3.83;;
1811;SDS011;904;47.814;11.134;2023-05-19T01:32:26;6.40;;;4.63;;
1811;SDS011;904;47.814;11.134;2023-05-19T01:34:55;6.87;;;4.27;;
1811;SDS011;904;47.814;11.134;2023-05-19T01:37:23;6.60;;;4.47;;
1811;SDS011;904;47.814;11.134;2023-05-19T01:39:52;9.23;;;4.73;;
1811;SDS011;904;47.814;11.134;2023-05-19T01:42:20;5.20;;;4.30;;
1811;SDS011;904;47.814;11.134;2023-05-19T01:44:48;6.88;;;5.00;;
1811;SDS011;904;47.814;11.134;2023-05-19T01:47:15;8.68;;;4.68;;
1811;SDS011;904;47.814;11.134;2023-05-19T01:49:45;11.57;;;4.28;;
1811;SDS011;904;47.814;11.134;2023-05-19T01:52:13;8.63;;;4.30;;
1811;SDS011;904;47.814;11.134;2023-05-19T01:54:40;8.38;;;5.63;;
1811;SDS011;904;47.814;11.134;2023-05-19T01:57:08;7.32;;;5.15;;
1811;SDS011;904;47.814;11.134;2023-05-19T01:59:47;11.65;;;5.18;;
1811;SDS011;904;47.814;11.134;2023-05-19T02:02:24;11.38;;;5.47;;
1811;SDS011;904;47.814;11.134;2023-05-19T02:05:06;8.63;;;4.82;;
1811;SDS011;904;47.814;11.134;2023-05-19T02:07:54;9.93;;;4.30;;
1811;SDS011;904;47.814;11.134;2023-05-19T02:10:27;11.07;;;4.60;;
1811;SDS011;904;47.814;11.134;2023-05-19T02:13:03;10.10;;;5.78;;
1811;SDS011;904;47.814;11.134;2023-05-19T02:15:33;8.52;;;5.00;;
1811;SDS011;904;47.814;11.134;2023-05-19T02:18:05;7.57;;;5.82;;
1811;SDS011;904;47.814;11.134;2023-05-19T02:20:37;9.32;;;5.53;;
1811;SDS011;904;47.814;11.134;2023-05-19T02:23:04;9.75;;;5.05;;
1811;SDS011;904;47.814;11.134;2023-05-19T02:25:31;7.63;;;5.07;;
1811;SDS011;904;47.814;11.134;2023-05-19T02:27:59;9.00;;;5.45;;
1811;SDS011;904;47.814;11.134;2023-05-19T02:30:26;9.35;;;5.30;;
1811;SDS011;904;47.814;11.134;2023-05-19T02:32:53;8.30;;;4.88;;
1811;SDS011;904;47.814;11.134;2023-05-19T02:35:20;12.32;;;5.28;;
1811;SDS011;904;47.814;11.134;2023-05-19T02:37:52;10.65;;;5.65;;
1811;SDS011;904;47.814;11.134;2023-05-19T02:40:19;9.80;;;4.45;;
1811;SDS011;904;47.814;11.134;2023-05-19T02:42:47;10.80;;;5.72;;
1811;SDS011;904;47.814;11.134;2023-05-19T02:45:14;9.20;;;5.05;;
1811;SDS011;904;47.814;11.134;2023-05-19T02:47:41;9.10;;;5.35;;
1811;SDS011;904;47.814;11.134;2023-05-19T02:50:08;8.70;;;4.50;;
1811;SDS011;904;47.814;11.134;2023-05-19T02:52:36;7.85;;;5.85;;
1811;SDS011;904;47.814;11.134;2023-05-19T02:55:05;5.68;;;4.43;;
1811;SDS011;904;47.814;11.134;2023-05-19T02:57:33;9.23;;;6.00;;
1811;SDS011;904;47.814;11.134;2023-05-19T03:00:00;6.03;;;4.47;;
1811;SDS011;904;47.814;11.134;2023-05-19T03:02:29;6.95;;;5.30;;
1811;SDS011;904;47.814;11.134;2023-05-19T03:04:57;9.70;;;4.95;;
1811;SDS011;904;47.814;11.134;2023-05-19T03:07:26;7.97;;;4.90;;
1811;SDS011;904;47.814;11.134;2023-05-19T03:09:53;7.60;;;4.95;;
1811;SDS011;904;47.814;11.134;2023-05-19T03:12:21;14.25;;;5.55;;
1811;SDS011;904;47.814;11.134;2023-05-19T03:14:49;10.82;;;5.47;;
1811;SDS011;904;47.814;11.134;2023-05-19T03:17:16;10.75;;;6.00;;
1811;SDS011;904;47.814;11.134;2023-05-19T03:19:43;12.98;;;4.53;;
1811;SDS011;904;47.814;11.134;2023-05-19T03:22:10;12.15;;;4.60;;
1811;SDS011;904;47.814;11.134;2023-05-19T03:24:37;8.45;;;4.28;;
1811;SDS011;904;47.814;11.134;2023-05-19T03:27:05;7.22;;;5.45;;
1811;SDS011;904;47.814;11.134;2023-05-19T03:29:33;7.60;;;4.45;;
1811;SDS011;904;47.814;11.134;2023-05-19T03:32:00;7.15;;;4.32;;
1811;SDS011;904;47.814;11.134;2023-05-19T03:34:27;10.32;;;6.10;;
1811;SDS011;904;47.814;11.134;2023-05-19T03:36:56;7.03;;;4.53;;
1811;SDS011;904;47.814;11.134;2023-05-19T03:39:23;9.10;;;5.78;;
1811;SDS011;904;47.814;11.134;2023-05-19T03:41:50;7.90;;;4.68;;
1811;SDS011;904;47.814;11.134;2023-05-19T03:44:17;10.65;;;5.82;;
1811;SDS011;904;47.814;11.134;2023-05-19T03:46:46;12.70;;;5.85;;
1811;SDS011;904;47.814;11.134;2023-05-19T03:49:13;6.10;;;5.15;;
1811;SDS011;904;47.814;11.134;2023-05-19T03:51:40;8.30;;;5.40;;
1811;SDS011;904;47.814;11.134;2023-05-19T03:54:08;9.98;;;5.65;;
1811;SDS011;904;47.814;11.134;2023-05-19T03:56:37;7.05;;;4.95;;
1811;SDS011;904;47.814;11.134;2023-05-19T03:59:05;7.32;;;5.10;;
1811;SDS011;904;47.814;11.134;2023-05-19T04:01:32;9.98;;;5.38;;
1811;SDS011;904;47.814;11.134;2023-05-19T04:04:00;7.55;;;4.78;;
1811;SDS011;904;47.814;11.134;2023-05-19T04:06:27;7.88;;;5.65;;
1811;SDS011;904;47.814;11.134;2023-05-19T04:08:55;6.45;;;4.82;;
1811;SDS011;904;47.814;11.134;2023-05-19T04:11:22;8.43;;;5.03;;
1811;SDS011;904;47.814;11.134;2023-05-19T04:13:49;11.15;;;6.00;;
1811;SDS011;904;47.814;11.134;2023-05-19T04:16:16;8.40;;;5.18;;
1811;SDS011;904;47.814;11.134;2023-05-19T04:18:43;12.23;;;5.63;;
1811;SDS011;904;47.814;11.134;2023-05-19T04:21:11;11.98;;;5.10;;
1811;SDS011;904;47.814;11.134;2023-05-19T04:23:38;8.68;;;5.38;;
1811;SDS011;904;47.814;11.134;2023-05-19T04:26:06;10.38;;;6.80;;
1811;SDS011;904;47.814;11.134;2023-05-19T04:28:33;7.93;;;5.50;;
1811;SDS011;904;47.814;11.134;2023-05-19T04:31:03;12.00;;;5.35;;
1811;SDS011;904;47.814;11.134;2023-05-19T04:33:35;8.88;;;5.70;;
1811;SDS011;904;47.814;11.134;2023-05-19T04:36:02;11.20;;;6.88;;
1811;SDS011;904;47.814;11.134;2023-05-19T04:38:34;8.60;;;5.35;;
1811;SDS011;904;47.814;11.134;2023-05-19T04:41:06;11.32;;;5.07;;
1811;SDS011;904;47.814;11.134;2023-05-19T04:43:34;14.63;;;6.07;;
1811;SDS011;904;47.814;11.134;2023-05-19T04:46:05;8.55;;;5.30;;
1811;SDS011;904;47.814;11.134;2023-05-19T04:48:34;10.57;;;5.38;;
1811;SDS011;904;47.814;11.134;2023-05-19T04:51:01;9.45;;;6.15;;
1811;SDS011;904;47.814;11.134;2023-05-19T04:53:28;14.50;;;5.85;;
1811;SDS011;904;47.814;11.134;2023-05-19T04:55:57;10.93;;;5.65;;
1811;SDS011;904;47.814;11.134;2023-05-19T04:58:24;9.03;;;5.30;;
1811;SDS011;904;47.814;11.134;2023-05-19T05:00:52;8.33;;;5.53;;
1811;SDS011;904;47.814;11.134;2023-05-19T05:03:20;15.73;;;5.60;;
1811;SDS011;904;47.814;11.134;2023-05-19T05:05:48;8.23;;;5.20;;
1811;SDS011;904;47.814;11.134;2023-05-19T05:08:15;6.97;;;4.85;;
1811;SDS011;904;47.814;11.134;2023-05-19T05:10:47;8.20;;;5.60;;
1811;SDS011;904;47.814;11.134;2023-05-19T05:13:21;7.95;;;4.95;;
1811;SDS011;904;47.814;11.134;2023-05-19T05:15:50;10.88;;;7.05;;
1811;SDS011;904;47.814;11.134;2023-05-19T05:18:18;9.70;;;6.13;;
1811;SDS011;904;47.814;11.134;2023-05-19T05:20:46;13.32;;;5.10;;
1811;SDS011;904;47.814;11.134;2023-05-19T05:23:13;7.72;;;5.55;;
1811;SDS011;904;47.814;11.134;2023-05-19T05:25:41;8.23;;;6.13;;
1811;SDS011;904;47.814;11.134;2023-05-19T05:28:14;7.30;;;5.30;;
1811;SDS011;904;47.814;11.134;2023-05-19T05:30:43;7.10;;;5.07;;
1811;SDS011;904;47.814;11.134;2023-05-19T05:33:10;10.93;;;5.33;;
1811;SDS011;904;47.814;11.134;2023-05-19T05:35:37;10.57;;;5.47;;
1811;SDS011;904;47.814;11.134;2023-05-19T05:38:04;10.53;;;6.10;;
1811;SDS011;904;47.814;11.134;2023-05-19T05:40:32;8.97;;;5.50;;
1811;SDS011;904;47.814;11.134;2023-05-19T05:42:59;6.63;;;4.97;;
1811;SDS011;904;47.814;11.134;2023-05-19T05:45:26;8.37;;;5.10;;
1811;SDS011;904;47.814;11.134;2023-05-19T05:47:54;7.00;;;4.90;;
1811;SDS011;904;47.814;11.134;2023-05-19T05:50:22;8.90;;;5.20;;
1811;SDS011;904;47.814;11.134;2023-05-19T05:52:49;7.20;;;5.33;;
1811;SDS011;904;47.814;11.134;2023-05-19T05:55:19;8.77;;;5.47;;
1811;SDS011;904;47.814;11.134;2023-05-19T05:57:47;8.63;;;5.33;;
1811;SDS011;904;47.814;11.134;2023-05-19T06:00:16;8.60;;;5.70;;
1811;SDS011;904;47.814;11.134;2023-05-19T06:02:45;14.60;;;5.40;;
1811;SDS011;904;47.814;11.134;2023-05-19T06:05:15;7.50;;;5.50;;
1811;SDS011;904;47.814;11.134;2023-05-19T06:07:43;10.60;;;6.20;;
1811;SDS011;904;47.814;11.134;2023-05-19T06:10:10;9.90;;;5.77;;
1811;SDS011;904;47.814;11.134;2023-05-19T06:12:37;9.70;;;5.63;;
1811;SDS011;904;47.814;11.134;2023-05-19T06:15:06;9.90;;;5.07;;
1811;SDS011;904;47.814;11.134;2023-05-19T06:17:33;9.57;;;4.77;;
1811;SDS011;904;47.814;11.134;2023-05-19T06:20:01;11.83;;;5.60;;
1811;SDS011;904;47.814;11.134;2023-05-19T06:22:31;9.80;;;5.00;;
1811;SDS011;904;47.814;11.134;2023-05-19T06:25:00;11.10;;;5.20;;
1811;SDS011;904;47.814;11.134;2023-05-19T06:27:27;8.70;;;4.83;;
1811;SDS011;904;47.814;11.134;2023-05-19T06:29:54;12.13;;;4.97;;
1811;SDS011;904;47.814;11.134;2023-05-19T06:32:21;9.43;;;4.97;;
1811;SDS011;904;47.814;11.134;2023-05-19T06:34:48;6.80;;;3.90;;
1811;SDS011;904;47.814;11.134;2023-05-19T06:37:19;8.33;;;5.40;;
1811;SDS011;904;47.814;11.134;2023-05-19T06:39:48;7.77;;;4.47;;
1811;SDS011;904;47.814;11.134;2023-05-19T06:42:16;9.20;;;4.40;;
1811;SDS011;904;47.814;11.134;2023-05-19T06:44:46;9.97;;;4.90;;
1811;SDS011;904;47.814;11.134;2023-05-19T06:47:14;14.57;;;4.83;;
1811;SDS011;904;47.814;11.134;2023-05-19T06:50:01;7.23;;;4.50;;
1811;SDS011;904;47.814;11.134;2023-05-19T06:52:28;7.33;;;4.47;;
1811;SDS011;904;47.814;11.134;2023-05-19T06:54:56;8.80;;;4.17;;
1811;SDS011;904;47.814;11.134;2023-05-19T06:57:23;11.77;;;4.43;;
1811;SDS011;904;47.814;11.134;2023-05-19T06:59:50;10.30;;;4.40;;
1811;SDS011;904;47.814;11.134;2023-05-19T07:02:17;8.97;;;5.30;;
1811;SDS011;904;47.814;11.134;2023-05-19T07:04:43;7.23;;;4.77;;
1811;SDS011;904;47.814;11.134;2023-05-19T07:07:11;7.77;;;4.53;;
1811;SDS011;904;47.814;11.134;2023-05-19T07:09:41;8.07;;;4.50;;
1811;SDS011;904;47.814;11.134;2023-05-19T07:12:10;9.67;;;4.70;;
1811;SDS011;904;47.814;11.134;2023-05-19T07:14:36;7.57;;;4.47;;
1811;SDS011;904;47.814;11.134;2023-05-19T07:17:03;9.37;;;5.70;;
1811;SDS011;904;47.814;11.134;2023-05-19T07:19:30;9.87;;;4.60;;
1811;SDS011;904;47.814;11.134;2023-05-19T07:21:57;10.30;;;5.20;;
1811;SDS011;904;47.814;11.134;2023-05-19T07:24:33;7.43;;;4.27;;
1811;SDS011;904;47.814;11.134;2023-05-19T07:27:00;11.93;;;4.70;;
1811;SDS011;904;47.814;11.134;2023-05-19T07:29:28;11.20;;;5.37;;
1811;SDS011;904;47.814;11.134;2023-05-19T07:31:55;13.03;;;5.10;;
1811;SDS011;904;47.814;11.134;2023-05-19T07:34:22;10.33;;;4.67;;
1811;SDS011;904;47.814;11.134;2023-05-19T07:36:49;7.13;;;4.80;;
1811;SDS011;904;47.814;11.134;2023-05-19T07:39:16;10.83;;;4.80;;
1811;SDS011;904;47.814;11.134;2023-05-19T07:41:44;5.83;;;4.10;;
1811;SDS011;904;47.814;11.134;2023-05-19T07:44:16;10.23;;;4.10;;
1811;SDS011;904;47.814;11.134;2023-05-19T07:46:44;11.80;;;5.33;;
1811;SDS011;904;47.814;11.134;2023-05-19T07:49:12;9.37;;;5.33;;
1811;SDS011;904;47.814;11.134;2023-05-19T07:51:39;5.13;;;4.03;;
1811;SDS011;904;47.814;11.134;2023-05-19T07:54:06;11.23;;;4.77;;
1811;SDS011;904;47.814;11.134;2023-05-19T07:56:33;8.90;;;4.90;;
1811;SDS011;904;47.814;11.134;2023-05-19T07:59:01;8.63;;;4.50;;
1811;SDS011;904;47.814;11.134;2023-05-19T08:01:31;11.33;;;4.10;;
1811;SDS011;904;47.814;11.134;2023-05-19T08:04:00;7.17;;;4.50;;
1811;SDS011;904;47.814;11.134;2023-05-19T08:06:27;9.40;;;5.20;;
1811;SDS011;904;47.814;11.134;2023-05-19T08:08:56;7.37;;;4.30;;
1811;SDS011;904;47.814;11.134;2023-05-19T08:11:23;8.97;;;4.87;;
1811;SDS011;904;47.814;11.134;2023-05-19T08:13:50;6.17;;;3.83;;
1811;SDS011;904;47.814;11.134;2023-05-19T08:16:17;7.90;;;4.30;;
1811;SDS011;904;47.814;11.134;2023-05-19T08:18:44;6.87;;;4.67;;
1811;SDS011;904;47.814;11.134;2023-05-19T08:21:13;6.80;;;3.80;;
1811;SDS011;904;47.814;11.134;2023-05-19T08:23:40;9.10;;;3.97;;
1811;SDS011;904;47.814;11.134;2023-05-19T08:26:07;8.10;;;4.70;;
1811;SDS011;904;47.814;11.134;2023-05-19T08:28:34;7.53;;;3.97;;
1811;SDS011;904;47.814;11.134;2023-05-19T08:31:01;6.67;;;4.10;;
1811;SDS011;904;47.814;11.134;2023-05-19T08:33:29;7.63;;;4.20;;
1811;SDS011;904;47.814;11.134;2023-05-19T08:35:56;6.07;;;3.60;;
1811;SDS011;904;47.814;11.134;2023-05-19T08:38:25;9.60;;;4.03;;
1811;SDS011;904;47.814;11.134;2023-05-19T08:40:52;7.43;;;4.47;;
1811;SDS011;904;47.814;11.134;2023-05-19T08:43:19;5.50;;;3.73;;
1811;SDS011;904;47.814;11.134;2023-05-19T08:45:46;7.97;;;3.00;;
1811;SDS011;904;47.814;11.134;2023-05-19T08:48:15;6.57;;;3.93;;
1811;SDS011;904;47.814;11.134;2023-05-19T08:50:45;7.87;;;3.63;;
1811;SDS011;904;47.814;11.134;2023-05-19T08:53:22;5.33;;;2.50;;
1811;SDS011;904;47.814;11.134;2023-05-19T08:55:59;7.43;;;4.03;;
1811;SDS011;904;47.814;11.134;2023-05-19T08:58:34;5.83;;;3.53;;
1811;SDS011;904;47.814;11.134;2023-05-19T09:01:03;5.70;;;3.10;;
1811;SDS011;904;47.814;11.134;2023-05-19T09:03:30;4.90;;;2.97;;
1811;SDS011;904;47.814;11.134;2023-05-19T09:06:02;6.07;;;3.80;;
1811;SDS011;904;47.814;11.134;2023-05-19T09:08:32;7.60;;;5.63;;
1811;SDS011;904;47.814;11.134;2023-05-19T09:10:59;13.10;;;3.70;;
1811;SDS011;904;47.814;11.134;2023-05-19T09:13:30;4.60;;;3.27;;
1811;SDS011;904;47.814;11.134;2023-05-19T09:15:57;8.63;;;3.00;;
1811;SDS011;904;47.814;11.134;2023-05-19T09:18:26;5.67;;;3.07;;
1811;SDS011;904;47.814;11.134;2023-05-19T09:20:55;5.73;;;3.37;;
1811;SDS011;904;47.814;11.134;2023-05-19T09:23:26;10.53;;;3.90;;
1811;SDS011;904;47.814;11.134;2023-05-19T09:25:55;5.87;;;2.80;;
1811;SDS011;904;47.814;11.134;2023-05-19T09:28:23;6.20;;;2.80;;
1811;SDS011;904;47.814;11.134;2023-05-19T09:31:01;7.97;;;3.03;;
1811;SDS011;904;47.814;11.134;2023-05-19T09:33:29;5.43;;;2.93;;
1811;SDS011;904;47.814;11.134;2023-05-19T09:35:58;5.27;;;2.93;;
1811;SDS011;904;47.814;11.134;2023-05-19T09:38:25;5.83;;;3.10;;
1811;SDS011;904;47.814;11.134;2023-05-19T09:40:55;4.60;;;2.40;;
1811;SDS011;904;47.814;11.134;2023-05-19T09:43:23;6.70;;;3.00;;
1811;SDS011;904;47.814;11.134;2023-05-19T09:45:53;3.30;;;2.53;;
1811;SDS011;904;47.814;11.134;2023-05-19T09:48:21;5.97;;;2.90;;
1811;SDS011;904;47.814;11.134;2023-05-19T09:50:48;4.70;;;3.27;;
1811;SDS011;904;47.814;11.134;2023-05-19T09:53:16;4.70;;;2.80;;
1811;SDS011;904;47.814;11.134;2023-05-19T09:55:43;4.47;;;3.03;;
1811;SDS011;904;47.814;11.134;2023-05-19T09:58:13;5.27;;;2.63;;
1811;SDS011;904;47.814;11.134;2023-05-19T10:00:45;5.77;;;2.80;;
1811;SDS011;904;47.814;11.134;2023-05-19T10:03:12;8.57;;;2.83;;
1811;SDS011;904;47.814;11.134;2023-05-19T10:05:44;6.43;;;2.83;;
1811;SDS011;904;47.814;11.134;2023-05-19T10:11:51;4.13;;;3.20;;
1811;SDS011;904;47.814;11.134;2023-05-19T10:15:11;3.00;;;2.07;;
1811;SDS011;904;47.814;11.134;2023-05-19T10:21:20;3.60;;;2.30;;
1811;SDS011;904;47.814;11.134;2023-05-19T10:23:47;4.83;;;2.80;;
1811;SDS011;904;47.814;11.134;2023-05-19T10:26:14;3.80;;;2.13;;
1811;SDS011;904;47.814;11.134;2023-05-19T10:28:41;4.63;;;2.37;;
1811;SDS011;904;47.814;11.134;2023-05-19T10:31:12;4.73;;;2.77;;
1811;SDS011;904;47.814;11.134;2023-05-19T10:33:54;4.77;;;2.43;;
1811;SDS011;904;47.814;11.134;2023-05-19T10:36:38;4.30;;;2.63;;
1811;SDS011;904;47.814;11.134;2023-05-19T10:39:13;5.40;;;2.43;;
1811;SDS011;904;47.814;11.134;2023-05-19T10:41:50;5.30;;;2.93;;
1811;SDS011;904;47.814;11.134;2023-05-19T10:44:27;4.60;;;2.27;;
1811;SDS011;904;47.814;11.134;2023-05-19T10:47:07;5.03;;;2.97;;
1811;SDS011;904;47.814;11.134;2023-05-19T10:49:35;4.83;;;2.17;;
1811;SDS011;904;47.814;11.134;2023-05-19T10:52:03;4.20;;;2.80;;
1811;SDS011;904;47.814;11.134;2023-05-19T10:54:45;3.87;;;2.20;;
1811;SDS011;904;47.814;11.134;2023-05-19T10:57:13;4.90;;;2.53;;
1811;SDS011;904;47.814;11.134;2023-05-19T10:59:41;3.30;;;2.57;;
1811;SDS011;904;47.814;11.134;2023-05-19T11:02:35;7.90;;;2.70;;
1811;SDS011;904;47.814;11.134;2023-05-19T11:05:09;4.63;;;2.40;;
1811;SDS011;904;47.814;11.134;2023-05-19T11:07:41;4.40;;;2.50;;
1811;SDS011;904;47.814;11.134;2023-05-19T11:10:12;4.83;;;2.43;;
1811;SDS011;904;47.814;11.134;2023-05-19T11:12:40;4.80;;;2.20;;
1811;SDS011;904;47.814;11.134;2023-05-19T11:15:09;3.60;;;2.40;;
1811;SDS011;904;47.814;11.134;2023-05-19T11:21:00;7.60;;;3.20;;
1811;SDS011;904;47.814;11.134;2023-05-19T11:23:31;5.17;;;2.50;;
1811;SDS011;904;47.814;11.134;2023-05-19T11:26:02;4.93;;;3.23;;
1811;SDS011;904;47.814;11.134;2023-05-19T11:28:31;4.83;;;2.50;;
1811;SDS011;904;47.814;11.134;2023-05-19T11:30:59;4.47;;;2.53;;
1811;SDS011;904;47.814;11.134;2023-05-19T11:33:27;6.83;;;4.07;;
1811;SDS011;904;47.814;11.134;2023-05-19T11:35:55;4.03;;;3.10;;
1811;SDS011;904;47.814;11.134;2023-05-19T11:38:23;5.00;;;3.20;;
1811;SDS011;904;47.814;11.134;2023-05-19T11:40:51;4.80;;;3.13;;
1811;SDS011;904;47.814;11.134;2023-05-19T11:43:21;5.27;;;2.50;;
1811;SDS011;904;47.814;11.134;2023-05-19T11:45:48;3.77;;;2.73;;
1811;SDS011;904;47.814;11.134;2023-05-19T11:48:19;3.90;;;3.17;;
1811;SDS011;904;47.814;11.134;2023-05-19T11:50:48;4.73;;;2.97;;
1811;SDS011;904;47.814;11.134;2023-05-19T11:53:16;4.80;;;2.87;;
1811;SDS011;904;47.814;11.134;2023-05-19T11:55:45;4.53;;;2.67;;
1811;SDS011;904;47.814;11.134;2023-05-19T11:58:12;3.63;;;2.90;;
1811;SDS011;904;47.814;11.134;2023-05-19T12:00:43;6.80;;;3.40;;
1811;SDS011;904;47.814;11.134;2023-05-19T12:03:11;3.90;;;2.83;;
1811;SDS011;904;47.814;11.134;2023-05-19T12:05:39;4.40;;;3.03;;
1811;SDS011;904;47.814;11.134;2023-05-19T12:08:09;4.70;;;2.90;;
1811;SDS011;904;47.814;11.134;2023-05-19T12:10:36;4.83;;;2.97;;
1811;SDS011;904;47.814;11.134;2023-05-19T12:13:04;5.50;;;2.60;;
1811;SDS011;904;47.814;11.134;2023-05-19T12:15:33;5.27;;;3.13;;
1811;SDS011;904;47.814;11.134;2023-05-19T12:18:04;4.70;;;2.83;;
1811;SDS011;904;47.814;11.134;2023-05-19T12:20:32;6.90;;;2.87;;
1811;SDS011;904;47.814;11.134;2023-05-19T12:23:00;6.80;;;3.13;;
1811;SDS011;904;47.814;11.134;2023-05-19T12:25:29;6.20;;;2.67;;
1811;SDS011;904;47.814;11.134;2023-05-19T12:27:56;4.80;;;2.80;;
1811;SDS011;904;47.814;11.134;2023-05-19T12:30:25;4.30;;;2.90;;
1811;SDS011;904;47.814;11.134;2023-05-19T12:32:53;9.27;;;3.33;;
1811;SDS011;904;47.814;11.134;2023-05-19T12:35:24;5.80;;;3.40;;
1811;SDS011;904;47.814;11.134;2023-05-19T12:37:57;4.13;;;2.90;;
1811;SDS011;904;47.814;11.134;2023-05-19T12:40:29;5.30;;;2.90;;
1811;SDS011;904;47.814;11.134;2023-05-19T12:42:56;8.80;;;2.63;;
1811;SDS011;904;47.814;11.134;2023-05-19T12:45:23;4.70;;;3.03;;
1811;SDS011;904;47.814;11.134;2023-05-19T12:47:52;4.90;;;3.23;;
1811;SDS011;904;47.814;11.134;2023-05-19T12:50:19;5.63;;;3.27;;
1811;SDS011;904;47.814;11.134;2023-05-19T12:52:47;7.23;;;3.50;;
1811;SDS011;904;47.814;11.134;2023-05-19T12:55:16;4.00;;;2.73;;
1811;SDS011;904;47.814;11.134;2023-05-19T12:57:47;6.30;;;3.33;;
1811;SDS011;904;47.814;11.134;2023-05-19T13:00:15;9.60;;;4.10;;
1811;SDS011;904;47.814;11.134;2023-05-19T13:02:54;8.23;;;4.60;;
1811;SDS011;904;47.814;11.134;2023-05-19T13:05:26;6.00;;;3.60;;
1811;SDS011;904;47.814;11.134;2023-05-19T13:07:57;4.77;;;3.60;;
1811;SDS011;904;47.814;11.134;2023-05-19T13:10:26;6.67;;;3.70;;
1811;SDS011;904;47.814;11.134;2023-05-19T13:12:55;7.03;;;3.90;;
1811;SDS011;904;47.814;11.134;2023-05-19T13:15:24;6.17;;;4.10;;
1811;SDS011;904;47.814;11.134;2023-05-19T13:17:53;5.33;;;3.77;;
1811;SDS011;904;47.814;11.134;2023-05-19T13:20:20;7.57;;;4.30;;
1811;SDS011;904;47.814;11.134;2023-05-19T13:22:48;8.20;;;4.23;;
1811;SDS011;904;47.814;11.134;2023-05-19T13:25:15;8.30;;;4.03;;
1811;SDS011;904;47.814;11.134;2023-05-19T13:27:42;5.80;;;3.80;;
1811;SDS011;904;47.814;11.134;2023-05-19T13:30:12;9.57;;;4.20;;
1811;SDS011;904;47.814;11.134;2023-05-19T13:32:40;8.50;;;4.30;;
1811;SDS011;904;47.814;11.134;2023-05-19T13:35:08;6.30;;;3.97;;
1811;SDS011;904;47.814;11.134;2023-05-19T13:37:36;5.50;;;4.00;;
1811;SDS011;904;47.814;11.134;2023-05-19T13:40:03;4.70;;;3.87;;
1811;SDS011;904;47.814;11.134;2023-05-19T13:42:31;10.40;;;4.03;;
1811;SDS011;904;47.814;11.134;2023-05-19T13:44:59;5.77;;;3.83;;
1811;SDS011;904;47.814;11.134;2023-05-19T13:47:28;7.20;;;4.43;;
1811;SDS011;904;47.814;11.134;2023-05-19T13:49:55;5.80;;;4.20;;
1811;SDS011;904;47.814;11.134;2023-05-19T13:52:22;6.97;;;4.10;;
1811;SDS011;904;47.814;11.134;2023-05-19T13:54:54;8.53;;;4.13;;
1811;SDS011;904;47.814;11.134;2023-05-19T13:57:26;6.60;;;4.60;;
1811;SDS011;904;47.814;11.134;2023-05-19T13:59:53;6.07;;;4.40;;
1811;SDS011;904;47.814;11.134;2023-05-19T14:02:20;10.30;;;4.83;;
1811;SDS011;904;47.814;11.134;2023-05-19T14:04:50;6.13;;;4.23;;
1811;SDS011;904;47.814;11.134;2023-05-19T14:07:18;7.33;;;4.47;;
1811;SDS011;904;47.814;11.134;2023-05-19T14:09:45;6.97;;;3.83;;
1811;SDS011;904;47.814;11.134;2023-05-19T14:12:12;6.67;;;4.23;;
1811;SDS011;904;47.814;11.134;2023-05-19T14:14:39;6.83;;;4.50;;
1811;SDS011;904;47.814;11.134;2023-05-19T14:17:06;9.77;;;7.23;;
1811;SDS011;904;47.814;11.134;2023-05-19T14:19:33;5.63;;;4.67;;
1811;SDS011;904;47.814;11.134;2023-05-19T14:22:01;7.13;;;4.77;;
1811;SDS011;904;47.814;11.134;2023-05-19T14:24:29;5.50;;;4.50;;
1811;SDS011;904;47.814;11.134;2023-05-19T14:26:56;6.90;;;5.47;;
1811;SDS011;904;47.814;11.134;2023-05-19T14:29:23;6.90;;;5.20;;
1811;SDS011;904;47.814;11.134;2023-05-19T14:31:49;8.10;;;5.10;;
1811;SDS011;904;47.814;11.134;2023-05-19T14:34:16;6.23;;;5.47;;
1811;SDS011;904;47.814;11.134;2023-05-19T14:36:45;8.40;;;5.77;;
1811;SDS011;904;47.814;11.134;2023-05-19T14:39:14;5.83;;;4.70;;
1811;SDS011;904;47.814;11.134;2023-05-19T14:41:41;7.47;;;5.53;;
1811;SDS011;904;47.814;11.134;2023-05-19T14:44:07;7.43;;;5.87;;
1811;SDS011;904;47.814;11.134;2023-05-19T14:46:34;5.80;;;4.37;;
1811;SDS011;904;47.814;11.134;2023-05-19T14:49:01;8.03;;;5.17;;
1811;SDS011;904;47.814;11.134;2023-05-19T14:51:30;8.80;;;5.70;;
1811;SDS011;904;47.814;11.134;2023-05-19T14:53:57;8.33;;;6.17;;
1811;SDS011;904;47.814;11.134;2023-05-19T14:56:27;7.30;;;5.50;;
1811;SDS011;904;47.814;11.134;2023-05-19T14:58:54;8.20;;;6.57;;
1811;SDS011;904;47.814;11.134;2023-05-19T15:01:24;7.70;;;5.47;;
1811;SDS011;904;47.814;11.134;2023-05-19T15:03:51;7.60;;;6.17;;
1811;SDS011;904;47.814;11.134;2023-05-19T15:06:18;8.73;;;6.10;;
1811;SDS011;904;47.814;11.134;2023-05-19T15:08:46;11.50;;;6.40;;
1811;SDS011;904;47.814;11.134;2023-05-19T15:11:13;10.63;;;6.50;;
1811;SDS011;904;47.814;11.134;2023-05-19T15:13:47;10.33;;;7.23;;
1811;SDS011;904;47.814;11.134;2023-05-19T15:16:15;8.77;;;6.43;;
1811;SDS011;904;47.814;11.134;2023-05-19T15:18:42;7.97;;;5.93;;
1811;SDS011;904;47.814;11.134;2023-05-19T15:21:09;7.47;;;5.63;;
1811;SDS011;904;47.814;11.134;2023-05-19T15:23:38;9.00;;;7.90;;
1811;SDS011;904;47.814;11.134;2023-05-19T15:26:05;9.90;;;6.70;;
1811;SDS011;904;47.814;11.134;2023-05-19T15:28:32;10.07;;;6.60;;
1811;SDS011;904;47.814;11.134;2023-05-19T15:31:01;7.47;;;6.70;;
1811;SDS011;904;47.814;11.134;2023-05-19T15:33:28;10.70;;;6.77;;
1811;SDS011;904;47.814;11.134;2023-05-19T15:35:55;7.77;;;6.97;;